Time;durP1;ratioP1;P1;durP2;ratioP2;P2;SDS_P1;SDS_P2;PMS_P1;PMS_P2;Temp;Humidity;BMP_temperature;BMP_pressure;BME280_temperature;BME280_humidity;BME280_pressure;Samples;Min_cycle;Max_cycle;Signal;HPM_P1;HPM_P2
2020/12/07 00:00:06;;;;;;;;;;;18.30;41.00;;;;;;491680;240;1173;-53
2020/12/07 00:02:07;;;;;;;;;;;18.30;41.00;;;;;;491732;240;1557;-53
2020/12/07 00:04:09;;;;;;;;;;;18.30;41.00;;;;;;491679;240;1181;-53
2020/12/07 00:06:10;;;;;;;;;;;18.20;41.00;;;;;;491607;240;1012;-53
2020/12/07 00:08:11;;;;;;;;;;;18.20;41.00;;;;;;492042;240;1490;-53
2020/12/07 00:10:13;;;;;;;;;;;18.20;41.00;;;;;;491622;240;1058;-53
2020/12/07 00:12:14;;;;;;;;;;;18.20;41.00;;;;;;491882;240;1216;-53
2020/12/07 00:14:15;;;;;;;;;;;18.20;41.00;;;;;;491658;240;1192;-53
2020/12/07 00:16:16;;;;;;;;;;;18.20;41.00;;;;;;491598;240;2205;-53
2020/12/07 00:18:18;;;;;;;;;;;18.20;41.00;;;;;;491703;240;1178;-53
2020/12/07 00:20:19;;;;;;;;;;;18.20;41.00;;;;;;491637;240;1254;-53
2020/12/07 00:22:20;;;;;;;;;;;18.20;41.00;;;;;;491738;240;1250;-53
2020/12/07 00:24:22;;;;;;;;;;;18.20;41.00;;;;;;491655;240;1274;-53
2020/12/07 00:26:23;;;;;;;;;;;18.20;41.00;;;;;;491800;240;2122;-53
2020/12/07 00:28:24;;;;;;;;;;;18.20;41.00;;;;;;491607;240;1103;-52
2020/12/07 00:30:25;;;;;;;;;;;18.20;41.00;;;;;;491724;240;1156;-53
2020/12/07 00:32:27;;;;;;;;;;;18.20;41.00;;;;;;491532;240;1493;-53
2020/12/07 00:34:28;;;;;;;;;;;18.20;41.00;;;;;;491646;240;1209;-53
2020/12/07 00:36:29;;;;;;;;;;;18.20;41.00;;;;;;491615;240;2256;-53
2020/12/07 00:38:30;;;;;;;;;;;18.10;41.00;;;;;;491626;240;1130;-53
2020/12/07 00:40:32;;;;;;;;;;;18.10;41.00;;;;;;491639;240;1112;-53
2020/12/07 00:42:33;;;;;;;;;;;18.10;41.00;;;;;;491812;240;1177;-53
2020/12/07 00:44:34;;;;;;;;;;;18.20;41.00;;;;;;491701;240;1161;-53
2020/12/07 00:46:36;;;;;;;;;;;18.20;40.90;;;;;;491611;240;1353;-53
2020/12/07 00:48:37;;;;;;;;;;;18.20;40.90;;;;;;491783;240;1088;-53
2020/12/07 00:50:38;;;;;;;;;;;18.20;40.80;;;;;;491589;240;1124;-53
2020/12/07 00:52:40;;;;;;;;;;;18.20;40.80;;;;;;491745;240;1372;-53
2020/12/07 00:54:41;;;;;;;;;;;18.30;40.80;;;;;;491626;240;1055;-53
2020/12/07 00:56:42;;;;;;;;;;;18.30;40.80;;;;;;491740;240;2199;-53
2020/12/07 00:58:44;;;;;;;;;;;18.30;40.70;;;;;;491818;240;1154;-53
2020/12/07 01:00:45;;;;;;;;;;;18.30;40.60;;;;;;491619;240;1230;-53
2020/12/07 01:02:46;;;;;;;;;;;18.30;40.60;;;;;;491613;240;1207;-53
2020/12/07 01:04:48;;;;;;;;;;;18.30;40.50;;;;;;491650;240;964;-53
2020/12/07 01:06:49;;;;;;;;;;;18.40;40.60;;;;;;491590;240;1194;-53
2020/12/07 01:08:50;;;;;;;;;;;18.40;40.50;;;;;;491776;240;1194;-53
2020/12/07 01:10:52;;;;;;;;;;;18.40;40.50;;;;;;491580;240;1155;-53
2020/12/07 01:12:53;;;;;;;;;;;18.40;40.50;;;;;;491604;240;1372;-54
2020/12/07 01:14:54;;;;;;;;;;;18.40;40.40;;;;;;491727;240;1194;-53
2020/12/07 01:16:55;;;;;;;;;;;18.50;40.40;;;;;;491622;240;2212;-53
2020/12/07 01:18:57;;;;;;;;;;;18.40;40.30;;;;;;491778;240;1061;-53
2020/12/07 01:20:58;;;;;;;;;;;18.50;40.30;;;;;;491629;240;1196;-53
2020/12/07 01:22:59;;;;;;;;;;;18.50;40.30;;;;;;491823;240;1094;-53
2020/12/07 01:25:00;;;;;;;;;;;18.50;40.30;;;;;;491920;240;1205;-53
2020/12/07 01:27:02;;;;;;;;;;;18.50;40.30;;;;;;491641;240;1074;-53
2020/12/07 01:29:03;;;;;;;;;;;18.60;40.30;;;;;;492010;240;1082;-53
2020/12/07 01:31:04;;;;;;;;;;;18.60;40.30;;;;;;491803;240;1168;-53
2020/12/07 01:33:06;;;;;;;;;;;18.60;40.20;;;;;;491663;240;1074;-53
2020/12/07 01:35:07;;;;;;;;;;;18.70;40.20;;;;;;491678;240;2199;-53
2020/12/07 01:37:08;;;;;;;;;;;18.60;40.10;;;;;;492016;240;1062;-53
2020/12/07 01:39:09;;;;;;;;;;;18.70;40.20;;;;;;491764;240;975;-53
2020/12/07 01:41:11;;;;;;;;;;;18.70;40.10;;;;;;491899;240;1060;-52
2020/12/07 01:43:12;;;;;;;;;;;18.70;40.10;;;;;;491764;240;1047;-52
2020/12/07 01:45:13;;;;;;;;;;;18.70;40.10;;;;;;491639;240;1291;-53
2020/12/07 01:47:15;;;;;;;;;;;18.70;40.10;;;;;;491559;240;1164;-53
2020/12/07 01:49:16;;;;;;;;;;;18.70;40.00;;;;;;491771;240;1072;-54
2020/12/07 01:51:17;;;;;;;;;;;18.80;40.00;;;;;;491778;240;1280;-53
2020/12/07 01:53:18;;;;;;;;;;;18.80;40.00;;;;;;491654;240;1182;-54
2020/12/07 01:55:20;;;;;;;;;;;18.80;39.90;;;;;;491654;240;2224;-53
2020/12/07 01:57:21;;;;;;;;;;;18.80;39.90;;;;;;491883;240;1156;-54
2020/12/07 01:59:22;;;;;;;;;;;18.80;39.90;;;;;;491646;240;1017;-53
2020/12/07 02:01:23;;;;;;;;;;;18.80;39.90;;;;;;491597;240;1217;-53
2020/12/07 02:03:25;;;;;;;;;;;18.80;39.80;;;;;;491768;240;999;-53
2020/12/07 02:05:26;;;;;;;;;;;18.90;39.90;;;;;;491821;240;1170;-53
2020/12/07 02:07:27;;;;;;;;;;;18.90;39.80;;;;;;491744;240;1111;-53
2020/12/07 02:09:29;;;;;;;;;;;18.90;39.80;;;;;;491679;240;1050;-53
2020/12/07 02:11:30;;;;;;;;;;;18.90;39.80;;;;;;491959;240;1045;-53
2020/12/07 02:13:31;;;;;;;;;;;18.90;39.70;;;;;;491841;240;1058;-53
2020/12/07 02:15:32;;;;;;;;;;;18.90;39.70;;;;;;491963;238;2179;-53
2020/12/07 02:17:34;;;;;;;;;;;18.90;39.70;;;;;;491616;240;1119;-53
2020/12/07 02:19:35;;;;;;;;;;;18.90;39.70;;;;;;491712;240;1068;-53
2020/12/07 02:21:38;;;;;;;;;;;19.00;39.80;;;;;;492005;240;1082;-53
2020/12/07 02:23:39;;;;;;;;;;;19.00;39.70;;;;;;491630;240;1097;-53
2020/12/07 02:25:40;;;;;;;;;;;19.00;39.70;;;;;;491647;240;1045;-53
2020/12/07 02:27:42;;;;;;;;;;;19.00;39.70;;;;;;491690;240;1391;-53
2020/12/07 02:29:43;;;;;;;;;;;19.00;39.70;;;;;;491633;240;1377;-53
2020/12/07 02:31:44;;;;;;;;;;;19.00;39.60;;;;;;491659;240;1176;-53
2020/12/07 02:33:46;;;;;;;;;;;19.00;39.60;;;;;;491666;240;1282;-53
2020/12/07 02:35:47;;;;;;;;;;;19.00;39.60;;;;;;491660;240;2188;-53
2020/12/07 02:37:48;;;;;;;;;;;19.00;39.60;;;;;;491624;240;1271;-54
2020/12/07 02:39:49;;;;;;;;;;;19.10;39.60;;;;;;491820;240;1073;-53
2020/12/07 02:41:51;;;;;;;;;;;19.10;39.60;;;;;;491899;240;1003;-53
2020/12/07 02:43:52;;;;;;;;;;;19.10;39.60;;;;;;491848;240;1051;-53
2020/12/07 02:45:53;;;;;;;;;;;19.10;39.50;;;;;;491751;240;1224;-53
2020/12/07 02:47:55;;;;;;;;;;;19.10;39.50;;;;;;491816;240;1069;-53
2020/12/07 02:49:56;;;;;;;;;;;19.10;39.50;;;;;;491595;240;1159;-53
2020/12/07 02:51:57;;;;;;;;;;;19.10;39.50;;;;;;491810;240;1068;-54
2020/12/07 02:53:58;;;;;;;;;;;19.10;39.50;;;;;;491676;240;1027;-53
2020/12/07 02:56:00;;;;;;;;;;;19.20;39.50;;;;;;491828;240;2196;-54
2020/12/07 02:58:01;;;;;;;;;;;19.20;39.50;;;;;;491695;240;1052;-53
2020/12/07 03:00:02;;;;;;;;;;;19.20;39.50;;;;;;491631;240;1092;-53
2020/12/07 03:02:03;;;;;;;;;;;19.20;39.50;;;;;;491644;240;1332;-53
2020/12/07 03:04:05;;;;;;;;;;;19.20;39.40;;;;;;491644;240;1195;-53
2020/12/07 03:06:06;;;;;;;;;;;19.20;39.40;;;;;;491655;240;1236;-53
2020/12/07 03:08:07;;;;;;;;;;;19.20;39.40;;;;;;491583;240;1100;-53
2020/12/07 03:10:09;;;;;;;;;;;19.20;39.40;;;;;;491741;240;1075;-53
2020/12/07 03:12:10;;;;;;;;;;;19.20;39.40;;;;;;491558;240;1318;-54
2020/12/07 03:14:11;;;;;;;;;;;19.20;39.40;;;;;;491649;240;1131;-53
2020/12/07 03:16:12;;;;;;;;;;;19.20;39.40;;;;;;491890;240;2192;-53
2020/12/07 03:18:14;;;;;;;;;;;19.30;39.30;;;;;;491618;240;1140;-53
2020/12/07 03:20:15;;;;;;;;;;;19.30;39.40;;;;;;491935;240;1172;-53
2020/12/07 03:22:16;;;;;;;;;;;19.20;39.30;;;;;;491622;240;1371;-53
2020/12/07 03:24:17;;;;;;;;;;;19.30;39.30;;;;;;491695;240;1321;-53
2020/12/07 03:26:19;;;;;;;;;;;19.30;39.30;;;;;;491787;240;1220;-53
2020/12/07 03:28:20;;;;;;;;;;;19.30;39.30;;;;;;491578;240;1176;-53
2020/12/07 03:30:21;;;;;;;;;;;19.30;39.30;;;;;;491584;240;1185;-53
2020/12/07 03:32:23;;;;;;;;;;;19.30;39.20;;;;;;491702;240;1174;-53
2020/12/07 03:34:24;;;;;;;;;;;19.30;39.30;;;;;;491798;240;1110;-53
2020/12/07 03:36:25;;;;;;;;;;;19.30;39.20;;;;;;491633;240;2179;-53
2020/12/07 03:38:26;;;;;;;;;;;19.30;39.20;;;;;;491585;240;1230;-53
2020/12/07 03:40:28;;;;;;;;;;;19.30;39.20;;;;;;491788;240;1428;-53
2020/12/07 03:42:29;;;;;;;;;;;19.30;39.20;;;;;;491638;240;1157;-54
2020/12/07 03:44:30;;;;;;;;;;;19.30;39.20;;;;;;491691;240;1256;-52
2020/12/07 03:46:32;;;;;;;;;;;19.30;39.20;;;;;;491580;240;1111;-53
2020/12/07 03:48:33;;;;;;;;;;;19.40;39.20;;;;;;491629;240;1150;-53
2020/12/07 03:50:34;;;;;;;;;;;19.40;39.20;;;;;;491795;240;1200;-54
2020/12/07 03:52:35;;;;;;;;;;;19.40;39.20;;;;;;491711;240;1139;-54
2020/12/07 03:54:37;;;;;;;;;;;19.40;39.20;;;;;;491969;240;1168;-53
2020/12/07 03:56:38;;;;;;;;;;;19.40;39.20;;;;;;491620;240;2175;-53
2020/12/07 03:58:39;;;;;;;;;;;19.40;39.20;;;;;;491753;240;1135;-52
2020/12/07 04:00:40;;;;;;;;;;;19.40;39.10;;;;;;491793;240;1184;-53
2020/12/07 04:02:42;;;;;;;;;;;19.40;39.10;;;;;;491741;240;1317;-53
2020/12/07 04:04:48;;;;;;;;;;;19.40;39.10;;;;;;491641;240;1179;-53
2020/12/07 04:06:45;;;;;;;;;;;19.40;39.10;;;;;;491574;242;2259;-53
2020/12/07 04:08:46;;;;;;;;;;;19.40;39.10;;;;;;491578;240;2290;-53
2020/12/07 04:10:47;;;;;;;;;;;19.40;39.10;;;;;;491574;240;1309;-53
2020/12/07 04:12:48;;;;;;;;;;;19.40;39.00;;;;;;491603;240;1164;-53
2020/12/07 04:14:49;;;;;;;;;;;19.50;39.20;;;;;;491914;240;988;-54
2020/12/07 04:16:51;;;;;;;;;;;19.60;39.20;;;;;;491632;240;2172;-53
2020/12/07 04:18:52;;;;;;;;;;;19.60;39.00;;;;;;491649;240;1114;-53
2020/12/07 04:20:53;;;;;;;;;;;19.60;38.90;;;;;;491611;240;1065;-54
2020/12/07 04:22:55;;;;;;;;;;;19.60;38.90;;;;;;491579;240;1459;-53
2020/12/07 04:24:56;;;;;;;;;;;19.60;39.00;;;;;;491652;240;1359;-53
2020/12/07 04:26:57;;;;;;;;;;;19.50;39.00;;;;;;491576;240;953;-53
2020/12/07 04:29:00;;;;;;;;;;;19.40;39.10;;;;;;491829;240;1459;-53
2020/12/07 04:31:00;;;;;;;;;;;19.40;39.20;;;;;;491674;240;2231;-53
2020/12/07 04:33:02;;;;;;;;;;;19.40;39.30;;;;;;491750;240;1207;-53
2020/12/07 04:35:03;;;;;;;;;;;19.40;39.30;;;;;;491596;240;1164;-53
2020/12/07 04:37:04;;;;;;;;;;;19.30;39.30;;;;;;491851;240;2184;-53
2020/12/07 04:39:06;;;;;;;;;;;19.30;39.40;;;;;;491647;240;1054;-53
2020/12/07 04:41:07;;;;;;;;;;;19.20;39.40;;;;;;491636;240;1145;-53
2020/12/07 04:43:08;;;;;;;;;;;19.20;39.50;;;;;;491632;240;1037;-53
2020/12/07 04:45:10;;;;;;;;;;;19.20;39.60;;;;;;491637;240;1111;-53
2020/12/07 04:47:11;;;;;;;;;;;19.20;39.70;;;;;;491615;240;1136;-53
2020/12/07 04:49:12;;;;;;;;;;;19.10;39.70;;;;;;491666;240;1122;-53
2020/12/07 04:51:13;;;;;;;;;;;19.10;39.70;;;;;;491636;240;1154;-53
2020/12/07 04:53:15;;;;;;;;;;;19.00;39.80;;;;;;491646;240;1178;-53
2020/12/07 04:55:16;;;;;;;;;;;19.00;39.80;;;;;;491753;240;1419;-53
2020/12/07 04:57:17;;;;;;;;;;;19.00;39.80;;;;;;491714;240;2172;-53
2020/12/07 04:59:19;;;;;;;;;;;19.00;39.90;;;;;;491639;240;1052;-53
2020/12/07 05:01:20;;;;;;;;;;;18.90;39.90;;;;;;491690;240;1192;-53
2020/12/07 05:03:21;;;;;;;;;;;19.00;40.00;;;;;;491607;240;1137;-53
2020/12/07 05:05:22;;;;;;;;;;;18.90;40.00;;;;;;491762;240;1343;-53
2020/12/07 05:07:24;;;;;;;;;;;18.90;40.10;;;;;;491599;240;1045;-53
2020/12/07 05:09:26;;;;;;;;;;;18.90;40.10;;;;;;491576;240;1181;-53
2020/12/07 05:11:27;;;;;;;;;;;18.80;40.10;;;;;;491833;240;1199;-53
2020/12/07 05:13:33;;;;;;;;;;;18.80;40.20;;;;;;491682;240;1027;-53
2020/12/07 05:15:31;;;;;;;;;;;18.80;40.20;;;;;;491599;242;2184;-53
2020/12/07 05:17:32;;;;;;;;;;;18.70;40.20;;;;;;491540;240;2187;-53
2020/12/07 05:19:33;;;;;;;;;;;18.80;40.20;;;;;;491813;240;1070;-54
2020/12/07 05:21:35;;;;;;;;;;;18.80;40.20;;;;;;491803;240;1076;-53
2020/12/07 05:23:36;;;;;;;;;;;18.80;40.20;;;;;;491617;240;1108;-52
2020/12/07 05:25:37;;;;;;;;;;;18.80;40.10;;;;;;491730;240;995;-53
2020/12/07 05:27:42;;;;;;;;;;;18.80;40.10;;;;;;491608;240;1543;-53
2020/12/07 05:29:44;;;;;;;;;;;18.70;40.10;;;;;;491591;241;2234;-53
2020/12/07 05:31:41;;;;;;;;;;;18.80;40.20;;;;;;491498;242;2275;-53
2020/12/07 05:33:42;;;;;;;;;;;18.80;40.10;;;;;;491494;240;1171;-53
2020/12/07 05:35:44;;;;;;;;;;;18.70;40.10;;;;;;491470;240;1167;-53
2020/12/07 05:37:45;;;;;;;;;;;18.70;40.10;;;;;;491464;240;2188;-53
2020/12/07 05:39:46;;;;;;;;;;;18.80;40.20;;;;;;491558;240;1090;-53
2020/12/07 05:41:47;;;;;;;;;;;18.70;40.10;;;;;;491313;240;1067;-53
2020/12/07 05:43:49;;;;;;;;;;;18.70;40.10;;;;;;491470;240;1284;-53
2020/12/07 05:45:50;;;;;;;;;;;18.70;40.10;;;;;;491481;240;1073;-53
2020/12/07 05:47:51;;;;;;;;;;;18.70;40.20;;;;;;491375;240;1221;-53
2020/12/07 05:49:53;;;;;;;;;;;18.70;40.20;;;;;;491598;240;1099;-53
2020/12/07 05:51:54;;;;;;;;;;;18.70;40.20;;;;;;491420;240;1112;-53
2020/12/07 05:53:55;;;;;;;;;;;18.70;40.20;;;;;;491366;240;1174;-53
2020/12/07 05:55:56;;;;;;;;;;;18.60;40.20;;;;;;491293;240;1175;-53
2020/12/07 05:57:58;;;;;;;;;;;18.60;40.30;;;;;;491277;240;2179;-53
2020/12/07 05:59:59;;;;;;;;;;;18.60;40.30;;;;;;491421;240;1440;-53
2020/12/07 06:02:00;;;;;;;;;;;18.60;40.30;;;;;;491427;240;1330;-53
2020/12/07 06:04:02;;;;;;;;;;;18.50;40.30;;;;;;491438;240;1240;-53
2020/12/07 06:06:03;;;;;;;;;;;18.50;40.40;;;;;;491277;240;1533;-53
2020/12/07 06:08:05;;;;;;;;;;;18.50;40.40;;;;;;491359;240;1059;-53
2020/12/07 06:10:06;;;;;;;;;;;18.50;40.40;;;;;;491354;240;1255;-53
2020/12/07 06:12:07;;;;;;;;;;;18.50;40.50;;;;;;491411;240;1149;-53
2020/12/07 06:14:08;;;;;;;;;;;18.50;40.50;;;;;;491411;240;1050;-53
2020/12/07 06:16:10;;;;;;;;;;;18.50;40.60;;;;;;491455;240;1446;-53
2020/12/07 06:18:11;;;;;;;;;;;18.40;40.60;;;;;;491390;240;2199;-53
2020/12/07 06:20:12;;;;;;;;;;;18.40;40.60;;;;;;491390;240;1088;-53
2020/12/07 06:22:13;;;;;;;;;;;18.40;40.60;;;;;;491415;240;1097;-52
2020/12/07 06:24:15;;;;;;;;;;;18.40;40.70;;;;;;491468;240;1197;-53
2020/12/07 06:26:16;;;;;;;;;;;18.40;40.70;;;;;;491439;240;1222;-52
2020/12/07 06:28:17;;;;;;;;;;;18.40;40.70;;;;;;491383;240;1169;-53
2020/12/07 06:30:19;;;;;;;;;;;18.40;40.80;;;;;;491542;240;1064;-53
2020/12/07 06:32:21;;;;;;;;;;;18.30;40.70;;;;;;491372;240;1297;-53
2020/12/07 06:34:23;;;;;;;;;;;18.30;40.80;;;;;;491420;240;1211;-53
2020/12/07 06:36:23;;;;;;;;;;;18.30;40.80;;;;;;491352;242;2232;-53
2020/12/07 06:38:24;;;;;;;;;;;18.30;40.80;;;;;;491290;240;2183;-53
2020/12/07 06:40:26;;;;;;;;;;;18.30;40.80;;;;;;491319;240;1045;-53
2020/12/07 06:42:27;;;;;;;;;;;18.20;39.50;;;;;;491251;240;1583;-52
2020/12/07 06:44:28;;;;;;;;;;;18.30;40.90;;;;;;491236;240;1087;-53
2020/12/07 06:46:30;;;;;;;;;;;18.20;40.80;;;;;;491242;240;1542;-53
2020/12/07 06:48:33;;;;;;;;;;;18.20;40.90;;;;;;491172;240;1182;-53
2020/12/07 06:50:32;;;;;;;;;;;18.20;40.90;;;;;;491299;241;2127;-53
2020/12/07 06:52:36;;;;;;;;;;;18.20;40.90;;;;;;491267;240;1515;-53
2020/12/07 06:56:54;;;;;;;;;;;18.20;41.00;;;;;;491271;242;2153;-53
2020/12/07 06:58:55;;;;;;;;;;;18.20;41.00;;;;;;491253;240;1148;-53
2020/12/07 07:00:57;;;;;;;;;;;18.20;41.00;;;;;;491253;240;1305;-53
2020/12/07 07:02:58;;;;;;;;;;;18.10;40.90;;;;;;491214;240;1162;-53
2020/12/07 07:04:59;;;;;;;;;;;18.10;41.00;;;;;;491339;240;1183;-53
2020/12/07 07:07:01;;;;;;;;;;;18.10;41.00;;;;;;491156;240;1295;-53
2020/12/07 07:09:02;;;;;;;;;;;18.10;41.00;;;;;;491121;240;1265;-53
2020/12/07 07:11:04;;;;;;;;;;;18.10;41.00;;;;;;491157;240;1238;-53
2020/12/07 07:13:05;;;;;;;;;;;18.10;41.00;;;;;;491255;240;1169;-53
2020/12/07 07:15:06;;;;;;;;;;;18.10;41.10;;;;;;491134;240;1210;-53
2020/12/07 07:17:07;;;;;;;;;;;18.10;41.10;;;;;;491110;240;2175;-53
2020/12/07 07:19:09;;;;;;;;;;;18.10;39.80;;;;;;491136;240;1516;-53
2020/12/07 07:21:10;;;;;;;;;;;18.10;41.10;;;;;;490861;240;1105;-53
2020/12/07 07:23:11;;;;;;;;;;;18.10;41.10;;;;;;490987;240;1164;-53
2020/12/07 07:25:26;;;;;;;;;;;18.10;41.10;;;;;;490876;240;1191;-53
2020/12/07 07:29:42;;;;;;;;;;;18.00;41.10;;;;;;491051;242;1235;-53
2020/12/07 07:31:43;;;;;;;;;;;18.00;41.10;;;;;;491131;240;1218;-53
2020/12/07 07:33:44;;;;;;;;;;;18.00;41.10;;;;;;491044;240;1092;-53
2020/12/07 07:35:46;;;;;;;;;;;18.10;41.00;;;;;;490988;240;1241;-53
2020/12/07 07:37:47;;;;;;;;;;;18.10;41.00;;;;;;490905;240;2176;-53
2020/12/07 07:39:48;;;;;;;;;;;18.10;39.60;;;;;;490989;240;1241;-53
2020/12/07 07:41:49;;;;;;;;;;;18.10;40.90;;;;;;490919;240;1237;-53
2020/12/07 07:43:51;;;;;;;;;;;18.20;40.90;;;;;;491119;240;1078;-53
2020/12/07 07:45:57;;;;;;;;;;;18.20;40.80;;;;;;490946;240;1184;-53
2020/12/07 07:47:59;;;;;;;;;;;18.20;40.80;;;;;;490791;242;2145;-53
2020/12/07 07:50:27;;;;;;;;;;;18.20;40.70;;;;;;490851;242;2082;-53
2020/12/07 07:57:31;;;;;;;;;;;18.30;40.70;;;;;;490963;242;1091;-53
2020/12/07 08:15:49;;;;;;;;;;;18.50;40.40;;;;;;490865;240;1184;-53
2020/12/07 08:17:50;;;;;;;;;;;18.50;40.40;;;;;;490773;240;2205;-53
2020/12/07 08:19:52;;;;;;;;;;;18.50;40.30;;;;;;490867;240;1181;-53
2020/12/07 08:21:53;;;;;;;;;;;18.50;40.30;;;;;;490850;240;1260;-53
2020/12/07 08:23:54;;;;;;;;;;;18.60;39.00;;;;;;490857;240;1136;-53
2020/12/07 08:25:56;;;;;;;;;;;18.60;40.30;;;;;;490794;240;1250;-53
2020/12/07 08:27:57;;;;;;;;;;;18.60;40.30;;;;;;490800;240;1189;-53
2020/12/07 08:29:58;;;;;;;;;;;18.60;38.90;;;;;;490804;240;1050;-53
2020/12/07 08:32:00;;;;;;;;;;;18.60;40.20;;;;;;490929;240;1238;-53
2020/12/07 08:34:07;;;;;;;;;;;18.70;40.30;;;;;;489491;243;1477;-53
2020/12/07 08:36:07;;;;;;;;;;;18.70;39.00;;;;;;490870;242;1873;-53
2020/12/07 08:38:08;;;;;;;;;;;18.70;40.30;;;;;;490823;240;2195;-53
2020/12/07 08:40:09;;;;;;;;;;;18.70;40.20;;;;;;490749;240;1175;-53
2020/12/07 08:42:11;;;;;;;;;;;18.70;40.20;;;;;;491033;240;1153;-53
2020/12/07 08:44:12;;;;;;;;;;;18.80;38.90;;;;;;490992;240;1146;-53
2020/12/07 08:46:13;;;;;;;;;;;18.80;40.20;;;;;;490970;240;1206;-53
2020/12/07 08:48:15;;;;;;;;;;;18.80;40.20;;;;;;490923;240;1159;-52
2020/12/07 08:50:16;;;;;;;;;;;18.80;40.10;;;;;;490877;240;1268;-53
2020/12/07 08:52:17;;;;;;;;;;;18.80;40.10;;;;;;490636;240;2202;-54
2020/12/07 08:54:19;;;;;;;;;;;18.90;40.20;;;;;;491554;240;1030;-52
2020/12/07 08:56:20;;;;;;;;;;;18.90;40.20;;;;;;490778;240;1122;-53
2020/12/07 08:58:21;;;;;;;;;;;18.90;40.20;;;;;;490798;240;2188;-53
2020/12/07 09:00:22;;;;;;;;;;;18.90;40.10;;;;;;490630;240;1401;-52
2020/12/07 09:02:24;;;;;;;;;;;18.90;40.10;;;;;;490618;240;1170;-53
2020/12/07 09:04:25;;;;;;;;;;;19.00;40.10;;;;;;490749;240;1076;-52
2020/12/07 09:06:27;;;;;;;;;;;19.00;40.00;;;;;;490680;240;1277;-53
2020/12/07 09:08:28;;;;;;;;;;;19.00;38.70;;;;;;490721;240;1180;-53
2020/12/07 09:10:29;;;;;;;;;;;19.00;40.00;;;;;;490827;240;1319;-54
2020/12/07 09:12:31;;;;;;;;;;;19.00;39.90;;;;;;491216;240;1056;-53
2020/12/07 09:14:32;;;;;;;;;;;19.00;38.60;;;;;;490789;240;1077;-53
2020/12/07 09:16:33;;;;;;;;;;;19.00;39.80;;;;;;490916;240;1194;-55
2020/12/07 09:18:34;;;;;;;;;;;19.00;39.80;;;;;;490774;240;2188;-53
2020/12/07 09:20:36;;;;;;;;;;;19.10;39.90;;;;;;490851;240;1222;-53
2020/12/07 09:22:37;;;;;;;;;;;19.10;39.80;;;;;;491647;240;1083;-53
2020/12/07 09:24:38;;;;;;;;;;;19.10;39.80;;;;;;491041;240;1145;-53
2020/12/07 09:26:39;;;;;;;;;;;19.10;39.70;;;;;;490840;240;1213;-53
2020/12/07 09:28:41;;;;;;;;;;;19.20;38.50;;;;;;490795;240;1075;-53
2020/12/07 09:30:42;;;;;;;;;;;19.10;39.70;;;;;;490818;240;1114;-53
2020/12/07 09:32:44;;;;;;;;;;;19.10;39.70;;;;;;490799;240;1278;-53
2020/12/07 09:34:45;;;;;;;;;;;19.10;38.40;;;;;;490845;240;1105;-53
2020/12/07 09:36:46;;;;;;;;;;;19.10;39.70;;;;;;490791;240;1246;-53
2020/12/07 09:38:48;;;;;;;;;;;19.20;38.40;;;;;;490736;240;2232;-53
2020/12/07 09:40:49;;;;;;;;;;;19.20;38.40;;;;;;490704;240;1271;-53
2020/12/07 09:42:50;;;;;;;;;;;19.20;39.60;;;;;;490611;240;1116;-53
2020/12/07 09:44:52;;;;;;;;;;;19.20;39.60;;;;;;490664;240;1102;-53
2020/12/07 09:46:53;;;;;;;;;;;19.30;38.40;;;;;;490763;240;1119;-53
2020/12/07 09:48:54;;;;;;;;;;;19.20;38.20;;;;;;490804;240;1222;-53
2020/12/07 09:50:56;;;;;;;;;;;19.30;39.60;;;;;;490823;240;1203;-53
2020/12/07 09:52:57;;;;;;;;;;;19.30;39.60;;;;;;490840;240;1177;-53
2020/12/07 09:54:58;;;;;;;;;;;19.30;39.60;;;;;;490870;240;1121;-53
2020/12/07 09:56:59;;;;;;;;;;;19.30;39.60;;;;;;490696;240;1167;-53
2020/12/07 09:59:01;;;;;;;;;;;19.30;39.60;;;;;;490751;240;2193;-53
2020/12/07 10:01:02;;;;;;;;;;;19.30;39.60;;;;;;490792;240;1077;-53
2020/12/07 10:03:03;;;;;;;;;;;19.30;39.50;;;;;;490794;240;1237;-53
2020/12/07 10:05:05;;;;;;;;;;;19.30;39.50;;;;;;490869;240;1162;-53
2020/12/07 10:07:06;;;;;;;;;;;19.30;39.50;;;;;;490816;240;1268;-53
2020/12/07 10:09:08;;;;;;;;;;;19.30;39.50;;;;;;490860;240;1186;-53
2020/12/07 10:11:09;;;;;;;;;;;18.40;39.00;;;;;;490951;240;1208;-53
2020/12/07 10:13:10;;;;;;;;;;;19.40;39.50;;;;;;490953;240;1368;-53
2020/12/07 10:15:11;;;;;;;;;;;19.30;39.40;;;;;;490894;240;1144;-53
2020/12/07 10:17:13;;;;;;;;;;;19.40;39.50;;;;;;490857;240;1293;-53
2020/12/07 10:19:14;;;;;;;;;;;19.40;39.50;;;;;;490850;240;2197;-53
2020/12/07 10:21:16;;;;;;;;;;;19.40;39.40;;;;;;490813;240;1248;-54
2020/12/07 10:23:17;;;;;;;;;;;19.40;39.40;;;;;;490792;240;1170;-53
2020/12/07 10:25:18;;;;;;;;;;;19.40;39.40;;;;;;490786;240;1193;-53
2020/12/07 10:27:19;;;;;;;;;;;19.40;38.10;;;;;;490767;240;1060;-53
2020/12/07 10:29:21;;;;;;;;;;;19.40;39.40;;;;;;490798;240;1148;-54
2020/12/07 10:31:22;;;;;;;;;;;19.40;39.40;;;;;;490592;240;1178;-53
2020/12/07 10:33:24;;;;;;;;;;;19.40;38.10;;;;;;490549;240;1156;-54
2020/12/07 10:35:25;;;;;;;;;;;19.40;39.40;;;;;;490549;240;1179;-53
2020/12/07 10:37:26;;;;;;;;;;;19.40;38.00;;;;;;490695;240;1202;-53
2020/12/07 10:39:27;;;;;;;;;;;19.40;39.40;;;;;;490690;240;2193;-53
2020/12/07 10:41:29;;;;;;;;;;;19.40;39.30;;;;;;490826;240;1381;-54
2020/12/07 10:43:30;;;;;;;;;;;19.50;38.10;;;;;;490832;240;1085;-53
2020/12/07 10:45:32;;;;;;;;;;;19.50;39.40;;;;;;490817;240;1078;-54
2020/12/07 10:47:33;;;;;;;;;;;19.50;39.40;;;;;;490705;240;1229;-53
2020/12/07 10:49:34;;;;;;;;;;;19.50;39.40;;;;;;490832;240;1069;-53
2020/12/07 10:51:36;;;;;;;;;;;19.50;39.40;;;;;;490658;240;1211;-53
2020/12/07 10:53:37;;;;;;;;;;;19.50;39.30;;;;;;490711;240;1169;-53
2020/12/07 10:55:38;;;;;;;;;;;19.50;39.30;;;;;;490710;240;1098;-53
2020/12/07 10:57:40;;;;;;;;;;;19.50;39.30;;;;;;490706;240;1176;-53
2020/12/07 10:59:41;;;;;;;;;;;19.50;38.00;;;;;;490744;240;2184;-53
2020/12/07 11:01:42;;;;;;;;;;;19.50;39.30;;;;;;490682;240;1391;-53
2020/12/07 11:03:45;;;;;;;;;;;19.50;39.30;;;;;;490680;240;1188;-53
2020/12/07 11:05:45;;;;;;;;;;;19.50;39.30;;;;;;490672;240;2194;-53
2020/12/07 11:07:49;;;;;;;;;;;19.60;39.30;;;;;;490698;240;1184;-53
2020/12/07 11:09:48;;;;;;;;;;;19.60;39.30;;;;;;490657;241;1985;-54
2020/12/07 11:11:49;;;;;;;;;;;19.60;39.30;;;;;;490959;240;1205;-53
2020/12/07 11:13:50;;;;;;;;;;;19.60;39.30;;;;;;491169;240;833;-53
2020/12/07 11:15:52;;;;;;;;;;;19.60;39.30;;;;;;491035;240;1201;-53
2020/12/07 11:17:53;;;;;;;;;;;19.60;39.20;;;;;;490770;240;1202;-53
2020/12/07 11:19:54;;;;;;;;;;;19.60;39.30;;;;;;490854;240;2208;-53
2020/12/07 11:21:55;;;;;;;;;;;19.60;39.20;;;;;;490920;240;1229;-53
2020/12/07 11:23:57;;;;;;;;;;;19.60;39.20;;;;;;490876;240;1100;-53
2020/12/07 11:25:58;;;;;;;;;;;19.60;39.20;;;;;;490952;240;1233;-53
2020/12/07 11:27:59;;;;;;;;;;;19.60;37.90;;;;;;490822;240;1162;-53
2020/12/07 11:30:01;;;;;;;;;;;19.60;39.20;;;;;;490888;240;1154;-53
2020/12/07 11:32:02;;;;;;;;;;;19.60;39.20;;;;;;490854;240;1171;-54
2020/12/07 11:34:04;;;;;;;;;;;19.60;39.20;;;;;;490888;240;1117;-53
2020/12/07 11:36:05;;;;;;;;;;;19.60;39.10;;;;;;491055;240;1283;-53
2020/12/07 11:38:11;;;;;;;;;;;19.70;39.50;;;;;;490790;240;1270;-53
2020/12/07 11:40:13;;;;;;;;;;;19.70;39.10;;;;;;490745;242;2188;-53
2020/12/07 11:42:17;;;;;;;;;;;19.80;39.00;;;;;;490623;242;2042;-54
2020/12/07 11:44:16;;;;;;;;;;;19.80;38.90;;;;;;490581;242;2188;-53
2020/12/07 11:46:16;;;;;;;;;;;19.80;37.70;;;;;;490611;242;2195;-53
2020/12/07 11:48:17;;;;;;;;;;;19.70;39.00;;;;;;490722;240;1193;-53
2020/12/07 11:50:19;;;;;;;;;;;19.70;37.90;;;;;;490666;240;1299;-53
2020/12/07 11:52:20;;;;;;;;;;;19.60;37.90;;;;;;490631;240;1242;-53
2020/12/07 11:54:21;;;;;;;;;;;19.60;39.30;;;;;;490780;240;1112;-53
2020/12/07 11:56:23;;;;;;;;;;;19.60;39.40;;;;;;490989;240;1178;-54
2020/12/07 11:58:24;;;;;;;;;;;19.50;39.40;;;;;;491620;240;1079;-53
2020/12/07 12:00:25;;;;;;;;;;;19.40;38.20;;;;;;490749;240;2175;-53
2020/12/07 12:02:27;;;;;;;;;;;19.40;38.20;;;;;;490644;240;1212;-53
2020/12/07 12:04:28;;;;;;;;;;;19.40;39.60;;;;;;490744;240;1126;-53
2020/12/07 12:06:30;;;;;;;;;;;19.40;39.70;;;;;;490690;240;1287;-53
2020/12/07 12:08:31;;;;;;;;;;;19.30;39.70;;;;;;490485;240;1225;-52
2020/12/07 12:10:32;;;;;;;;;;;19.30;39.80;;;;;;490772;240;1313;-53
2020/12/07 12:12:33;;;;;;;;;;;19.30;38.50;;;;;;490750;240;1346;-53
2020/12/07 12:14:35;;;;;;;;;;;19.30;39.90;;;;;;490756;240;1226;-53
2020/12/07 12:16:36;;;;;;;;;;;19.20;39.90;;;;;;491337;240;1230;-53
2020/12/07 12:18:37;;;;;;;;;;;19.20;40.00;;;;;;490637;241;2184;-53
2020/12/07 12:20:42;;;;;;;;;;;19.20;40.00;;;;;;490838;240;1592;-53
2020/12/07 12:22:40;;;;;;;;;;;19.20;40.10;;;;;;490965;242;2089;-53